Impacts TAF Board
For situational awareness. Not to be used for flight planning purposes.
IDs:

KHUM - Houma/Terrebonne Arp, LA, US

Issued at 1739 UTC 15 Oct 2018
Updated at 2317 UTC 15 Oct 2018
Potential Impact None Slight Moderate High
Time<<16/12Z 16/13Z 16/14Z 16/15Z 16/16Z 16/17Z 16/18Z 16/19Z 16/20Z 16/21Z 16/22Z 16/23Z 17/00Z>>
Type PRVL PRVL PRVL PRVL PRVL PRVL
VIS 3 3 3 >6 >6 >6
CIG 15 15 15 15 15 15
Cover OVC OVC OVC OVC OVC OVC
FltCat MVFR MVFR MVFR MVFR MVFR MVFR
WX BR VCSH BR VCSH BR VCSH VCSH VCSH VCSH
WDir VRB VRB VRB 70 70 70
WSpd 3 3 3 5 5 5
WGst -- -- -- -- -- --
Raw TAF
KHUM 151739Z 1518/1618 15007KT P6SM VCSH SCT020 BKN070
  FM152100 14007KT P6SM SCT025 BKN070
  TEMPO 1521/1523 4SM SHRA BKN025
  FM152300 12005KT P6SM VCSH SCT025 BKN100
  FM160900 VRB03KT 3SM BR VCSH SCT008 OVC015
  FM161500 07005KT P6SM VCSH OVC015


METAR Board
Radar Display
Forecast Discussion
For situational awareness. Not to be used for flight planning purposes.